Terminal Aerodrome Forecast
Issued by NWS Wilmington, NC

Home | Current Version | Previous Version | Text Only | Print | Product List | Glossary On
Versions: 1 2 3 4 5 6 7 8 9 10 11 12 13 14 15 16 17 18 19 20 21 22 23
000
FTUS42 KILM 210800 AAA
TAFILM
TAF AMD
KILM 210821Z 2108/2206 33012KT P6SM VCSH BKN007 OVC150
     FM211300 32012G18KT P6SM SCT015 OVC180
     FM211600 29011KT P6SM FEW035 SCT200
     FM212300 23007KT P6SM SKC=

USA.gov is the U.S. government's official web portal to all federal, state and local government web resources and services.